Easterwood Field
KCLL : rendu visible

Aérodrome :











RETROUVEZ-NOUS SUR...

 
LOGIN :

S'inscrire | Disclaimer

   EN    FR    IT 

 









Légende :    VFR   VFR Marginal   IFR   IFR Intensif   IFR Très Intensif
Visi : 
Plafond : 
>= 8 km
>= 3000ft
5 à 8 km
1000 à 3000 ft
1500m à 5 km
500 à 1000 ft
800 à 1500m
200 à 500 ft
< 800m
< 200 ft
Symboles :   Orages  Brouillard  Fortes neiges  Fortes précipitations  Vent > 20 kt






- Altitude de l'aérodrome : 320 ft
- Code IATA : CLL


KCLL - Easterwood Field

DERNIER METAR :
  • 171153Z AUTO 00000KT 10SM CLR 06/03 A3007 RMK AO2 SLP182 T00610033 10089 20056 53001 $

METARs EXPIRÉS :
  • 171053Z AUTO 00000KT 9SM CLR 06/03 A3007 RMK AO2 SLP180 T00610033 $
  • 170953Z AUTO 00000KT 10SM CLR 08/04 A3007 RMK AO2 SLP180 T00780039 $

TAF KCLL
Valide du 17 à 12h jusqu'au 18 à 12h UTC


171120Z 1712/1812 VRB02KT P6SM SKC
FM172100 23006KT P6SM SCT050 BKN120
FM180300 19003KT P6SM BKN250
FM180900 34004KT P6SM SKC



MET'MAP, la Météo Aéronautique d'un coup d'oeil ! - Copyright ORBIFLY Décembre 2007 - Disclaimer

ORBIFLY MET'MAP TEAM :

Programmation & Développement : Alexandra Zaïnal
Conception & Développement : Baudouin d'Aumeries
Co-Programmation & Développement : Marc-Olivier Méhu
Soutien technique & logistique : Manuel Goepfert

Contact : metmap@orbifly.com




SOURCES & CREDITS :

   NOAA       Earth
Advisory